Terminal Aerodrome Forecast
Issued by NWS

Home | Current Version | Previous Version | Text Only | Print | Product List | Glossary On
Versions: 1 2 3 4 5 6 7 8 9 10 11 12 13
000
FTUS46 KPDT 191725
TAFDLS
TAF
KDLS 191725Z 1918/2018 30007KT P6SM -SHRA BKN070 OVC090
     FM192200 30007KT P6SM -RA BKN040 OVC060
     FM200400 30006KT P6SM VCSH BKN060
     FM201000 30010KT P6SM SCT060=

USA.gov is the U.S. government's official web portal to all federal, state and local government web resources and services.